sensor_id;sensor_type;location;lat;lon;timestamp;pressure;altitude;pressure_sealevel;temperature;humidity
47738;BME280;33502;47.182;27.506;2023-01-09T00:01:25;100653.63;;;0.67;100.00
47738;BME280;33502;47.182;27.506;2023-01-09T00:03:52;100653.63;;;0.67;100.00
47738;BME280;33502;47.182;27.506;2023-01-09T00:06:17;100651.03;;;0.74;100.00
47738;BME280;33502;47.182;27.506;2023-01-09T00:08:43;100656.25;;;0.76;100.00
47738;BME280;33502;47.182;27.506;2023-01-09T00:11:08;100651.94;;;0.75;100.00
47738;BME280;33502;47.182;27.506;2023-01-09T00:13:35;100650.19;;;0.77;100.00
47738;BME280;33502;47.182;27.506;2023-01-09T00:16:01;100648.47;;;0.79;100.00
47738;BME280;33502;47.182;27.506;2023-01-09T00:18:26;100651.06;;;0.81;100.00
47738;BME280;33502;47.182;27.506;2023-01-09T00:20:52;100651.06;;;0.84;100.00
47738;BME280;33502;47.182;27.506;2023-01-09T00:23:17;100644.13;;;0.83;100.00
47738;BME280;33502;47.182;27.506;2023-01-09T00:25:43;100641.50;;;0.87;100.00
47738;BME280;33502;47.182;27.506;2023-01-09T00:28:08;100642.38;;;0.88;100.00
47738;BME280;33502;47.182;27.506;2023-01-09T00:30:34;100637.16;;;0.88;100.00
47738;BME280;33502;47.182;27.506;2023-01-09T00:32:59;100633.69;;;0.89;100.00
47738;BME280;33502;47.182;27.506;2023-01-09T00:35:26;100638.06;;;0.93;100.00
47738;BME280;33502;47.182;27.506;2023-01-09T00:37:52;100635.44;;;0.94;100.00
47738;BME280;33502;47.182;27.506;2023-01-09T00:40:18;100627.63;;;0.94;100.00
47738;BME280;33502;47.182;27.506;2023-01-09T00:42:45;100625.03;;;0.94;100.00
47738;BME280;33502;47.182;27.506;2023-01-09T00:45:19;100624.16;;;0.97;100.00
47738;BME280;33502;47.182;27.506;2023-01-09T00:47:49;100612.88;;;0.98;100.00
47738;BME280;33502;47.182;27.506;2023-01-09T00:50:20;100606.75;;;0.99;100.00
47738;BME280;33502;47.182;27.506;2023-01-09T00:52:47;100603.28;;;1.05;100.00
47738;BME280;33502;47.182;27.506;2023-01-09T00:55:13;100598.09;;;1.08;100.00
47738;BME280;33502;47.182;27.506;2023-01-09T00:57:39;100597.22;;;1.10;100.00
47738;BME280;33502;47.182;27.506;2023-01-09T01:00:06;100592.00;;;1.13;100.00
47738;BME280;33502;47.182;27.506;2023-01-09T01:02:31;100592.88;;;1.15;100.00
47738;BME280;33502;47.182;27.506;2023-01-09T01:04:57;100587.66;;;1.17;100.00
47738;BME280;33502;47.182;27.506;2023-01-09T01:07:41;100580.69;;;1.16;100.00
47738;BME280;33502;47.182;27.506;2023-01-09T01:10:17;100577.22;;;1.15;100.00
47738;BME280;33502;47.182;27.506;2023-01-09T01:12:44;100575.47;;;1.16;100.00
47738;BME280;33502;47.182;27.506;2023-01-09T01:15:10;100568.50;;;1.16;100.00
47738;BME280;33502;47.182;27.506;2023-01-09T01:17:37;100574.63;;;1.17;100.00
47738;BME280;33502;47.182;27.506;2023-01-09T01:20:03;100565.91;;;1.16;100.00
47738;BME280;33502;47.182;27.506;2023-01-09T01:22:29;100563.31;;;1.18;100.00
47738;BME280;33502;47.182;27.506;2023-01-09T01:24:54;100551.13;;;1.20;100.00
47738;BME280;33502;47.182;27.506;2023-01-09T01:27:20;100547.66;;;1.23;100.00
47738;BME280;33502;47.182;27.506;2023-01-09T01:29:45;100545.91;;;1.28;100.00
47738;BME280;33502;47.182;27.506;2023-01-09T01:32:11;100543.31;;;1.32;100.00
47738;BME280;33502;47.182;27.506;2023-01-09T01:34:37;100539.81;;;1.40;100.00
47738;BME280;33502;47.182;27.506;2023-01-09T01:37:02;100536.31;;;1.42;100.00
47738;BME280;33502;47.182;27.506;2023-01-09T01:39:28;100537.19;;;1.44;100.00
47738;BME280;33502;47.182;27.506;2023-01-09T01:41:53;100528.50;;;1.45;100.00
47738;BME280;33502;47.182;27.506;2023-01-09T01:47:03;100527.56;;;1.59;100.00
47738;BME280;33502;47.182;27.506;2023-01-09T01:49:29;100525.81;;;1.67;100.00
47738;BME280;33502;47.182;27.506;2023-01-09T01:51:54;100512.72;;;1.79;100.00
47738;BME280;33502;47.182;27.506;2023-01-09T01:54:21;100513.56;;;1.86;100.00
47738;BME280;33502;47.182;27.506;2023-01-09T01:56:49;100510.94;;;1.92;100.00
47738;BME280;33502;47.182;27.506;2023-01-09T01:59:25;100509.19;;;1.94;100.00
47738;BME280;33502;47.182;27.506;2023-01-09T02:01:53;100505.69;;;1.98;100.00
47738;BME280;33502;47.182;27.506;2023-01-09T02:04:21;100506.53;;;2.02;100.00
47738;BME280;33502;47.182;27.506;2023-01-09T02:06:47;100501.31;;;2.05;100.00
47738;BME280;33502;47.182;27.506;2023-01-09T02:09:14;100501.28;;;2.09;100.00
47738;BME280;33502;47.182;27.506;2023-01-09T02:11:43;100489.03;;;2.18;100.00
47738;BME280;33502;47.182;27.506;2023-01-09T02:14:10;100486.41;;;2.21;100.00
47738;BME280;33502;47.182;27.506;2023-01-09T02:22:20;100472.41;;;2.31;100.00
47738;BME280;33502;47.182;27.506;2023-01-09T02:28:10;100461.81;;;2.51;100.00
47738;BME280;33502;47.182;27.506;2023-01-09T02:33:38;100455.63;;;2.66;100.00
47738;BME280;33502;47.182;27.506;2023-01-09T02:36:17;100451.19;;;2.74;100.00
47738;BME280;33502;47.182;27.506;2023-01-09T02:41:42;100447.63;;;2.81;100.00
47738;BME280;33502;47.182;27.506;2023-01-09T02:44:20;100441.50;;;2.85;100.00
47738;BME280;33502;47.182;27.506;2023-01-09T02:46:46;100444.94;;;2.87;100.00
47738;BME280;33502;47.182;27.506;2023-01-09T02:49:14;100437.91;;;2.94;100.00
47738;BME280;33502;47.182;27.506;2023-01-09T02:51:56;100442.22;;;3.00;100.00
47738;BME280;33502;47.182;27.506;2023-01-09T02:59:47;100425.50;;;3.14;100.00
47738;BME280;33502;47.182;27.506;2023-01-09T03:05:18;100434.09;;;3.26;100.00
47738;BME280;33502;47.182;27.506;2023-01-09T03:07:47;100431.50;;;3.24;100.00
47738;BME280;33502;47.182;27.506;2023-01-09T03:10:31;100422.72;;;3.28;100.00
47738;BME280;33502;47.182;27.506;2023-01-09T03:13:01;100413.06;;;3.35;100.00
47738;BME280;33502;47.182;27.506;2023-01-09T03:15:28;100416.44;;;3.45;100.00
47738;BME280;33502;47.182;27.506;2023-01-09T03:17:56;100417.16;;;3.56;100.00
47738;BME280;33502;47.182;27.506;2023-01-09T03:20:22;100420.53;;;3.64;100.00
47738;BME280;33502;47.182;27.506;2023-01-09T03:22:57;100417.94;;;3.63;100.00
47738;BME280;33502;47.182;27.506;2023-01-09T03:25:24;100415.31;;;3.63;100.00
47738;BME280;33502;47.182;27.506;2023-01-09T03:28:03;100412.69;;;3.63;100.00
47738;BME280;33502;47.182;27.506;2023-01-09T03:30:29;100418.78;;;3.66;100.00
47738;BME280;33502;47.182;27.506;2023-01-09T03:32:56;100413.53;;;3.68;100.00
47738;BME280;33502;47.182;27.506;2023-01-09T03:35:21;100417.81;;;3.72;100.00
47738;BME280;33502;47.182;27.506;2023-01-09T03:37:47;100409.13;;;3.71;100.00
47738;BME280;33502;47.182;27.506;2023-01-09T03:40:12;100409.13;;;3.71;100.00
47738;BME280;33502;47.182;27.506;2023-01-09T03:42:38;100403.69;;;3.85;100.00
47738;BME280;33502;47.182;27.506;2023-01-09T03:45:04;100407.75;;;4.06;100.00
47738;BME280;33502;47.182;27.506;2023-01-09T03:47:30;100410.13;;;4.22;100.00
47738;BME280;33502;47.182;27.506;2023-01-09T03:49:55;100408.88;;;4.47;100.00
47738;BME280;33502;47.182;27.506;2023-01-09T03:52:21;100406.84;;;4.63;100.00
47738;BME280;33502;47.182;27.506;2023-01-09T03:54:47;100399.69;;;4.73;100.00
47738;BME280;33502;47.182;27.506;2023-01-09T03:57:12;100395.31;;;4.74;100.00
47738;BME280;33502;47.182;27.506;2023-01-09T03:59:38;100396.06;;;4.80;100.00
47738;BME280;33502;47.182;27.506;2023-01-09T04:02:04;100398.63;;;4.83;100.00
47738;BME280;33502;47.182;27.506;2023-01-09T04:04:30;100403.84;;;4.85;100.00
47738;BME280;33502;47.182;27.506;2023-01-09T04:06:55;100402.88;;;4.90;100.00
47738;BME280;33502;47.182;27.506;2023-01-09T04:09:21;100399.34;;;4.93;100.00
47738;BME280;33502;47.182;27.506;2023-01-09T04:11:47;100388.84;;;4.93;100.00
47738;BME280;33502;47.182;27.506;2023-01-09T04:14:12;100389.72;;;4.94;100.00
47738;BME280;33502;47.182;27.506;2023-01-09T04:16:38;100392.34;;;4.92;100.00
47738;BME280;33502;47.182;27.506;2023-01-09T04:19:04;100381.88;;;4.90;100.00
47738;BME280;33502;47.182;27.506;2023-01-09T04:21:29;100381.06;;;4.87;100.00
47738;BME280;33502;47.182;27.506;2023-01-09T04:23:55;100373.28;;;4.84;100.00
47738;BME280;33502;47.182;27.506;2023-01-09T04:26:20;100381.06;;;4.87;100.00
47738;BME280;33502;47.182;27.506;2023-01-09T04:28:46;100368.03;;;4.84;100.00
47738;BME280;33502;47.182;27.506;2023-01-09T04:31:12;100372.47;;;4.80;100.00
47738;BME280;33502;47.182;27.506;2023-01-09T04:33:37;100366.25;;;4.84;100.00
47738;BME280;33502;47.182;27.506;2023-01-09T04:36:03;100374.09;;;4.87;100.00
47738;BME280;33502;47.182;27.506;2023-01-09T04:38:29;100374.91;;;4.89;100.00
47738;BME280;33502;47.182;27.506;2023-01-09T04:40:54;100374.03;;;4.89;100.00
47738;BME280;33502;47.182;27.506;2023-01-09T04:43:20;100358.38;;;4.86;100.00
47738;BME280;33502;47.182;27.506;2023-01-09T04:45:46;100365.25;;;4.93;100.00
47738;BME280;33502;47.182;27.506;2023-01-09T04:48:19;100374.00;;;4.90;100.00
47738;BME280;33502;47.182;27.506;2023-01-09T04:50:45;100358.28;;;4.89;100.00
47738;BME280;33502;47.182;27.506;2023-01-09T04:53:10;100370.56;;;4.87;100.00
47738;BME280;33502;47.182;27.506;2023-01-09T04:55:36;100363.63;;;4.84;100.00
47738;BME280;33502;47.182;27.506;2023-01-09T04:58:02;100379.47;;;4.80;100.00
47738;BME280;33502;47.182;27.506;2023-01-09T05:00:27;100373.41;;;4.76;100.00
47738;BME280;33502;47.182;27.506;2023-01-09T05:02:53;100366.50;;;4.72;100.00
47738;BME280;33502;47.182;27.506;2023-01-09T05:05:19;100364.78;;;4.69;100.00
47738;BME280;33502;47.182;27.506;2023-01-09T05:07:44;100358.66;;;4.69;100.00
47738;BME280;33502;47.182;27.506;2023-01-09T05:10:10;100352.59;;;4.65;100.00
47738;BME280;33502;47.182;27.506;2023-01-09T05:12:36;100369.19;;;4.66;100.00
47738;BME280;33502;47.182;27.506;2023-01-09T05:15:02;100360.47;;;4.67;100.00
47738;BME280;33502;47.182;27.506;2023-01-09T05:17:29;100360.38;;;4.70;100.00
47738;BME280;33502;47.182;27.506;2023-01-09T05:19:54;100349.00;;;4.71;100.00
47738;BME280;33502;47.182;27.506;2023-01-09T05:22:20;100347.25;;;4.71;100.00
47738;BME280;33502;47.182;27.506;2023-01-09T05:24:45;100350.00;;;4.65;100.00
47738;BME280;33502;47.182;27.506;2023-01-09T05:27:11;100331.59;;;4.67;100.00
47738;BME280;33502;47.182;27.506;2023-01-09T05:29:36;100342.88;;;4.72;100.00
47738;BME280;33502;47.182;27.506;2023-01-09T05:32:02;100337.56;;;4.75;100.00
47738;BME280;33502;47.182;27.506;2023-01-09T05:34:28;100327.97;;;4.74;100.00
47738;BME280;33502;47.182;27.506;2023-01-09T05:36:53;100337.56;;;4.75;100.00
47738;BME280;33502;47.182;27.506;2023-01-09T05:39:19;100327.09;;;4.74;100.00
47738;BME280;33502;47.182;27.506;2023-01-09T05:41:45;100335.06;;;4.69;100.00
47738;BME280;33502;47.182;27.506;2023-01-09T05:44:10;100326.34;;;4.68;100.00
47738;BME280;33502;47.182;27.506;2023-01-09T05:46:36;100324.56;;;4.70;100.00
47738;BME280;33502;47.182;27.506;2023-01-09T05:49:01;100346.28;;;4.77;100.00
47738;BME280;33502;47.182;27.506;2023-01-09T05:51:27;100354.16;;;4.77;100.00
47738;BME280;33502;47.182;27.506;2023-01-09T05:53:55;100313.00;;;4.79;100.00
47738;BME280;33502;47.182;27.506;2023-01-09T05:56:20;100328.69;;;4.82;100.00
47738;BME280;33502;47.182;27.506;2023-01-09T05:58:46;100328.66;;;4.84;100.00
47738;BME280;33502;47.182;27.506;2023-01-09T06:01:12;100323.31;;;4.88;100.00
47738;BME280;33502;47.182;27.506;2023-01-09T06:03:37;100334.63;;;4.92;100.00
47738;BME280;33502;47.182;27.506;2023-01-09T06:06:03;100337.25;;;4.92;100.00
47738;BME280;33502;47.182;27.506;2023-01-09T06:08:28;100331.16;;;4.92;100.00
47738;BME280;33502;47.182;27.506;2023-01-09T06:10:54;100337.34;;;4.87;100.00
47738;BME280;33502;47.182;27.506;2023-01-09T06:13:20;100319.97;;;4.82;100.00
47738;BME280;33502;47.182;27.506;2023-01-09T06:15:46;100337.34;;;4.87;100.00
47738;BME280;33502;47.182;27.506;2023-01-09T06:18:11;100330.16;;;4.97;100.00
47738;BME280;33502;47.182;27.506;2023-01-09T06:20:37;100320.41;;;5.04;100.00
47738;BME280;33502;47.182;27.506;2023-01-09T06:23:02;100329.09;;;5.06;100.00
47738;BME280;33502;47.182;27.506;2023-01-09T06:25:28;100329.88;;;5.11;100.00
47738;BME280;33502;47.182;27.506;2023-01-09T06:27:54;100338.56;;;5.15;100.00
47738;BME280;33502;47.182;27.506;2023-01-09T06:30:19;100341.09;;;5.18;100.00
47738;BME280;33502;47.182;27.506;2023-01-09T06:32:46;100346.31;;;5.21;100.00
47738;BME280;33502;47.182;27.506;2023-01-09T06:35:12;100349.78;;;5.21;100.00
47738;BME280;33502;47.182;27.506;2023-01-09T06:37:38;100349.75;;;5.24;100.00
47738;BME280;33502;47.182;27.506;2023-01-09T06:40:03;100347.91;;;5.29;100.00
47738;BME280;33502;47.182;27.506;2023-01-09T06:42:29;100337.41;;;5.28;100.00
47738;BME280;33502;47.182;27.506;2023-01-09T06:44:55;100357.47;;;5.32;100.00
47738;BME280;33502;47.182;27.506;2023-01-09T06:47:20;100347.72;;;5.37;100.00
47738;BME280;33502;47.182;27.506;2023-01-09T06:49:46;100327.53;;;5.41;100.00
47738;BME280;33502;47.182;27.506;2023-01-09T06:52:11;100336.25;;;5.43;100.00
47738;BME280;33502;47.182;27.506;2023-01-09T06:54:38;100323.03;;;5.46;100.00
47738;BME280;33502;47.182;27.506;2023-01-09T06:57:03;100335.19;;;5.50;100.00
47738;BME280;33502;47.182;27.506;2023-01-09T06:59:29;100312.44;;;5.51;100.00
47738;BME280;33502;47.182;27.506;2023-01-09T07:01:54;100329.06;;;5.49;100.00
47738;BME280;33502;47.182;27.506;2023-01-09T07:04:20;100315.84;;;5.54;100.00
47738;BME280;33502;47.182;27.506;2023-01-09T07:06:48;100309.56;;;5.60;100.00
47738;BME280;33502;47.182;27.506;2023-01-09T07:09:14;100298.84;;;5.71;100.00
47738;BME280;33502;47.182;27.506;2023-01-09T07:11:40;100289.16;;;5.73;100.00
47738;BME280;33502;47.182;27.506;2023-01-09T07:14:05;100306.63;;;5.75;100.00
47738;BME280;33502;47.182;27.506;2023-01-09T07:16:31;100292.59;;;5.75;100.00
47738;BME280;33502;47.182;27.506;2023-01-09T07:18:58;100281.34;;;5.69;100.00
47738;BME280;33502;47.182;27.506;2023-01-09T07:21:23;100298.00;;;5.68;100.00
47738;BME280;33502;47.182;27.506;2023-01-09T07:23:49;100312.00;;;5.69;100.00
47738;BME280;33502;47.182;27.506;2023-01-09T07:26:14;100296.13;;;5.75;100.00
47738;BME280;33502;47.182;27.506;2023-01-09T07:28:40;100289.78;;;5.82;100.00
47738;BME280;33502;47.182;27.506;2023-01-09T07:31:06;100294.13;;;5.85;100.00
47738;BME280;33502;47.182;27.506;2023-01-09T07:33:32;100278.28;;;5.88;100.00
47738;BME280;33502;47.182;27.506;2023-01-09T07:35:57;100269.38;;;5.95;100.00
47738;BME280;33502;47.182;27.506;2023-01-09T07:38:23;100269.13;;;6.06;100.00
47738;BME280;33502;47.182;27.506;2023-01-09T07:40:49;100323.31;;;6.12;100.00
47738;BME280;33502;47.182;27.506;2023-01-09T07:43:14;100280.94;;;6.24;100.00
47738;BME280;33502;47.182;27.506;2023-01-09T07:45:40;100289.44;;;6.34;100.00
47738;BME280;33502;47.182;27.506;2023-01-09T07:48:05;100280.44;;;6.44;100.00
47738;BME280;33502;47.182;27.506;2023-01-09T07:50:31;100301.38;;;6.47;100.00
47738;BME280;33502;47.182;27.506;2023-01-09T07:52:56;100271.09;;;6.65;100.00
47738;BME280;33502;47.182;27.506;2023-01-09T07:55:22;100297.00;;;6.80;100.00
47738;BME280;33502;47.182;27.506;2023-01-09T07:57:48;100275.50;;;6.96;100.00
47738;BME280;33502;47.182;27.506;2023-01-09T08:00:14;100294.91;;;6.92;100.00
47738;BME280;33502;47.182;27.506;2023-01-09T08:02:40;100291.88;;;7.05;100.00
47738;BME280;33502;47.182;27.506;2023-01-09T08:05:06;100267.44;;;7.00;100.00
47738;BME280;33502;47.182;27.506;2023-01-09T08:07:33;100290.63;;;6.88;100.00
47738;BME280;33502;47.182;27.506;2023-01-09T08:09:59;100283.88;;;6.79;100.00
47738;BME280;33502;47.182;27.506;2023-01-09T08:12:24;100295.38;;;6.75;100.00
47738;BME280;33502;47.182;27.506;2023-01-09T08:14:50;100307.75;;;6.71;100.00
47738;BME280;33502;47.182;27.506;2023-01-09T08:17:15;100331.44;;;6.71;100.00
47738;BME280;33502;47.182;27.506;2023-01-09T08:19:41;100319.84;;;6.78;100.00
47738;BME280;33502;47.182;27.506;2023-01-09T08:22:08;100318.91;;;6.81;100.00
47738;BME280;33502;47.182;27.506;2023-01-09T08:24:34;100299.44;;;6.86;100.00
47738;BME280;33502;47.182;27.506;2023-01-09T08:27:01;100313.22;;;6.96;100.00
47738;BME280;33502;47.182;27.506;2023-01-09T08:29:26;100311.47;;;6.95;100.00
47738;BME280;33502;47.182;27.506;2023-01-09T08:31:54;100337.88;;;6.92;100.00
47738;BME280;33502;47.182;27.506;2023-01-09T08:34:20;100331.59;;;6.98;100.00
47738;BME280;33502;47.182;27.506;2023-01-09T08:36:46;100333.34;;;6.97;100.00
47738;BME280;33502;47.182;27.506;2023-01-09T08:39:11;100327.25;;;6.95;100.00
47738;BME280;33502;47.182;27.506;2023-01-09T08:41:37;100317.72;;;6.91;100.00
47738;BME280;33502;47.182;27.506;2023-01-09T08:44:21;100310.81;;;6.87;100.00
47738;BME280;33502;47.182;27.506;2023-01-09T08:47:06;100319.69;;;6.84;100.00
47738;BME280;33502;47.182;27.506;2023-01-09T08:49:32;100319.66;;;6.86;100.00
47738;BME280;33502;47.182;27.506;2023-01-09T08:51:58;100308.19;;;6.87;100.00
47738;BME280;33502;47.182;27.506;2023-01-09T08:54:24;100328.25;;;6.91;100.00
47738;BME280;33502;47.182;27.506;2023-01-09T08:56:49;100322.94;;;6.93;100.00
47738;BME280;33502;47.182;27.506;2023-01-09T08:59:15;100315.97;;;6.92;100.00
47738;BME280;33502;47.182;27.506;2023-01-09T09:01:40;100308.13;;;6.90;100.00
47738;BME280;33502;47.182;27.506;2023-01-09T09:04:06;100302.03;;;6.88;100.00
47738;BME280;33502;47.182;27.506;2023-01-09T09:06:32;100305.56;;;6.87;100.00
47738;BME280;33502;47.182;27.506;2023-01-09T09:08:58;100309.03;;;6.88;100.00
47738;BME280;33502;47.182;27.506;2023-01-09T09:11:31;100297.66;;;6.87;100.00
47738;BME280;33502;47.182;27.506;2023-01-09T09:13:57;100292.31;;;6.90;100.00
47738;BME280;33502;47.182;27.506;2023-01-09T09:16:23;100266.06;;;6.87;100.00
47738;BME280;33502;47.182;27.506;2023-01-09T09:18:48;100324.81;;;6.89;100.00
47738;BME280;33502;47.182;27.506;2023-01-09T09:21:14;100290.53;;;6.91;100.00
47738;BME280;33502;47.182;27.506;2023-01-09T09:23:39;100277.34;;;6.92;100.00
47738;BME280;33502;47.182;27.506;2023-01-09T09:26:05;100289.72;;;6.89;100.00
47738;BME280;33502;47.182;27.506;2023-01-09T09:28:31;100266.13;;;6.85;100.00
47738;BME280;33502;47.182;27.506;2023-01-09T09:30:56;100278.41;;;6.85;100.00
47738;BME280;33502;47.182;27.506;2023-01-09T09:33:22;100255.59;;;6.85;100.00
47738;BME280;33502;47.182;27.506;2023-01-09T09:35:48;100260.97;;;6.82;100.00
47738;BME280;33502;47.182;27.506;2023-01-09T09:38:13;100281.19;;;6.80;100.00
47738;BME280;33502;47.182;27.506;2023-01-09T09:43:29;100246.91;;;6.82;100.00
47738;BME280;33502;47.182;27.506;2023-01-09T09:46:44;100270.59;;;6.82;100.00
47738;BME280;33502;47.182;27.506;2023-01-09T09:49:15;100248.56;;;6.86;100.00
47738;BME280;33502;47.182;27.506;2023-01-09T09:54:20;100257.28;;;6.88;100.00
47738;BME280;33502;47.182;27.506;2023-01-09T09:56:53;100256.41;;;6.88;100.00
47738;BME280;33502;47.182;27.506;2023-01-09T09:59:22;100265.13;;;6.90;100.00
47738;BME280;33502;47.182;27.506;2023-01-09T10:01:58;100259.84;;;6.90;100.00
47738;BME280;33502;47.182;27.506;2023-01-09T10:04:25;100261.66;;;6.88;100.00
47738;BME280;33502;47.182;27.506;2023-01-09T10:06:59;100274.78;;;6.89;100.00
47738;BME280;33502;47.182;27.506;2023-01-09T10:14:39;100247.56;;;6.90;100.00
47738;BME280;33502;47.182;27.506;2023-01-09T10:24:50;100224.38;;;7.03;100.00
47738;BME280;33502;47.182;27.506;2023-01-09T10:27:30;100211.19;;;7.03;100.00
47738;BME280;33502;47.182;27.506;2023-01-09T10:37:35;100211.75;;;7.14;100.00
47738;BME280;33502;47.182;27.506;2023-01-09T10:42:45;100201.69;;;7.27;100.00
47738;BME280;33502;47.182;27.506;2023-01-09T10:45:15;100188.63;;;7.24;100.00
47738;BME280;33502;47.182;27.506;2023-01-09T10:47:42;100189.38;;;7.28;100.00
47738;BME280;33502;47.182;27.506;2023-01-09T10:50:15;100190.97;;;7.33;100.00
47738;BME280;33502;47.182;27.506;2023-01-09T10:52:42;100190.06;;;7.34;100.00
47738;BME280;33502;47.182;27.506;2023-01-09T10:57:41;100171.59;;;7.36;100.00
47738;BME280;33502;47.182;27.506;2023-01-09T11:00:13;100167.31;;;7.32;100.00
47738;BME280;33502;47.182;27.506;2023-01-09T11:02:39;100135.91;;;7.25;100.00
47738;BME280;33502;47.182;27.506;2023-01-09T11:05:05;100153.66;;;7.20;100.00
47738;BME280;33502;47.182;27.506;2023-01-09T11:07:32;100153.81;;;7.14;100.00
47738;BME280;33502;47.182;27.506;2023-01-09T11:10:03;100143.19;;;7.17;100.00
47738;BME280;33502;47.182;27.506;2023-01-09T11:12:30;100142.34;;;7.17;100.00
47738;BME280;33502;47.182;27.506;2023-01-09T11:15:41;100146.72;;;7.16;100.00
47738;BME280;33502;47.182;27.506;2023-01-09T11:17:45;100129.22;;;7.15;100.00
47738;BME280;33502;47.182;27.506;2023-01-09T11:20:15;100146.84;;;7.13;100.00
47738;BME280;33502;47.182;27.506;2023-01-09T11:22:42;100138.94;;;7.13;100.00
47738;BME280;33502;47.182;27.506;2023-01-09T11:25:12;100137.16;;;7.14;100.00
47738;BME280;33502;47.182;27.506;2023-01-09T11:27:38;100123.03;;;7.16;100.00
47738;BME280;33502;47.182;27.506;2023-01-09T11:30:14;100120.38;;;7.16;100.00
47738;BME280;33502;47.182;27.506;2023-01-09T11:32:40;100120.25;;;7.21;100.00
47738;BME280;33502;47.182;27.506;2023-01-09T11:35:06;100115.75;;;7.24;100.00
47738;BME280;33502;47.182;27.506;2023-01-09T11:37:39;100100.81;;;7.25;100.00
47738;BME280;33502;47.182;27.506;2023-01-09T11:40:13;100114.75;;;7.29;100.00
47738;BME280;33502;47.182;27.506;2023-01-09T11:42:40;100119.81;;;7.35;100.00
47738;BME280;33502;47.182;27.506;2023-01-09T11:45:31;100118.19;;;7.31;100.00
47738;BME280;33502;47.182;27.506;2023-01-09T11:47:58;100125.28;;;7.29;100.00
47738;BME280;33502;47.182;27.506;2023-01-09T11:50:29;100121.63;;;7.33;100.00
47738;BME280;33502;47.182;27.506;2023-01-09T11:53:14;100126.66;;;7.40;100.00
47738;BME280;33502;47.182;27.506;2023-01-09T11:55:41;100108.97;;;7.44;100.00
47738;BME280;33502;47.182;27.506;2023-01-09T11:58:17;100099.25;;;7.46;100.00
47738;BME280;33502;47.182;27.506;2023-01-09T12:00:57;100102.78;;;7.45;100.00
47738;BME280;33502;47.182;27.506;2023-01-09T12:03:36;100104.47;;;7.48;100.00
47738;BME280;33502;47.182;27.506;2023-01-09T12:08:55;100123.75;;;7.48;100.00
47738;BME280;33502;47.182;27.506;2023-01-09T12:14:11;100092.75;;;7.56;100.00
47738;BME280;33502;47.182;27.506;2023-01-09T12:16:54;100091.66;;;7.62;100.00
47738;BME280;33502;47.182;27.506;2023-01-09T12:27:06;100093.91;;;7.74;100.00
47738;BME280;33502;47.182;27.506;2023-01-09T12:35:06;100086.53;;;7.59;100.00
47738;BME280;33502;47.182;27.506;2023-01-09T12:40:25;100106.13;;;7.50;100.00
47738;BME280;33502;47.182;27.506;2023-01-09T12:43:10;100103.63;;;7.47;100.00
47738;BME280;33502;47.182;27.506;2023-01-09T12:51:12;100099.50;;;7.38;100.00
47738;BME280;33502;47.182;27.506;2023-01-09T12:54:03;100128.47;;;7.38;100.00
47738;BME280;33502;47.182;27.506;2023-01-09T12:56:31;100099.41;;;7.41;100.00
47738;BME280;33502;47.182;27.506;2023-01-09T12:59:05;100085.31;;;7.42;100.00
47738;BME280;33502;47.182;27.506;2023-01-09T13:01:33;100091.44;;;7.43;100.00
47738;BME280;33502;47.182;27.506;2023-01-09T13:04:06;100099.34;;;7.43;100.00
47738;BME280;33502;47.182;27.506;2023-01-09T13:06:34;100094.06;;;7.43;100.00
47738;BME280;33502;47.182;27.506;2023-01-09T13:09:13;100079.81;;;7.49;100.00
47738;BME280;33502;47.182;27.506;2023-01-09T13:11:44;100058.69;;;7.50;100.00
47738;BME280;33502;47.182;27.506;2023-01-09T13:16:47;100072.63;;;7.54;100.00
47738;BME280;33502;47.182;27.506;2023-01-09T13:19:20;100057.69;;;7.54;100.00
47738;BME280;33502;47.182;27.506;2023-01-09T13:21:47;100063.84;;;7.55;100.00
47738;BME280;33502;47.182;27.506;2023-01-09T13:24:15;100041.81;;;7.56;100.00
47738;BME280;33502;47.182;27.506;2023-01-09T13:26:46;100040.03;;;7.56;100.00
47738;BME280;33502;47.182;27.506;2023-01-09T13:34:25;100052.75;;;7.70;100.00
47738;BME280;33502;47.182;27.506;2023-01-09T13:36:52;100051.88;;;7.70;100.00
47738;BME280;33502;47.182;27.506;2023-01-09T13:39:23;100068.56;;;7.70;100.00
47738;BME280;33502;47.182;27.506;2023-01-09T13:41:53;100054.47;;;7.71;100.00
47738;BME280;33502;47.182;27.506;2023-01-09T13:44:39;100036.81;;;7.73;100.00
47738;BME280;33502;47.182;27.506;2023-01-09T13:47:08;100023.59;;;7.75;100.00
47738;BME280;33502;47.182;27.506;2023-01-09T13:59:52;100026.22;;;7.50;100.00
47738;BME280;33502;47.182;27.506;2023-01-09T14:02:55;100019.19;;;7.50;100.00
47738;BME280;33502;47.182;27.506;2023-01-09T14:08:00;100016.72;;;7.45;100.00
47738;BME280;33502;47.182;27.506;2023-01-09T14:10:32;100034.50;;;7.39;100.00
47738;BME280;33502;47.182;27.506;2023-01-09T14:12:59;100006.53;;;7.35;100.00
47738;BME280;33502;47.182;27.506;2023-01-09T14:18:03;100003.19;;;7.30;100.00
47738;BME280;33502;47.182;27.506;2023-01-09T14:20:34;100004.84;;;7.34;100.00
47738;BME280;33502;47.182;27.506;2023-01-09T14:23:00;100012.84;;;7.31;100.00
47738;BME280;33502;47.182;27.506;2023-01-09T14:25:28;99990.91;;;7.30;100.00
47738;BME280;33502;47.182;27.506;2023-01-09T14:38:03;100018.38;;;7.23;100.00
47738;BME280;33502;47.182;27.506;2023-01-09T14:40:30;100002.63;;;7.21;100.00
47738;BME280;33502;47.182;27.506;2023-01-09T14:42:58;100004.34;;;7.22;100.00